Time;durP1;ratioP1;P1;durP2;ratioP2;P2;SDS_P1;SDS_P2;PMS_P1;PMS_P2;Temp;Humidity;BMP_temperature;BMP_pressure;BME280_temperature;BME280_humidity;BME280_pressure;Samples;Min_cycle;Max_cycle;Signal;HPM_P1;HPM_P2
2021/12/08 00:01:36;;;;;;;14.18;8.80;;;5.60;96.70;;;;;;4870037;29;20788;-72
2021/12/08 00:04:05;;;;;;;14.75;8.77;;;5.50;96.70;;;;;;4871051;29;20038;-72
2021/12/08 00:06:33;;;;;;;15.05;8.52;;;5.60;96.70;;;;;;4872890;29;20176;-72
2021/12/08 00:09:19;;;;;;;14.77;8.80;;;5.60;96.70;;;;;;4870946;29;20052;-73
2021/12/08 00:14:33;;;;;;;12.95;8.13;;;5.50;96.70;;;;;;4869924;29;20043;-72
2021/12/08 00:17:02;;;;;;;14.77;8.75;;;5.40;96.70;;;;;;4872676;29;20511;-72
2021/12/08 00:19:31;;;;;;;12.90;9.00;;;5.40;96.70;;;;;;4871570;29;20063;-72
2021/12/08 00:22:00;;;;;;;14.23;8.73;;;5.40;96.70;;;;;;4871052;29;20048;-72
2021/12/08 00:24:29;;;;;;;13.50;8.63;;;5.60;96.70;;;;;;4855584;29;20105;-72
2021/12/08 00:26:57;;;;;;;12.80;8.48;;;5.60;96.70;;;;;;4854961;29;20068;-72
2021/12/08 00:29:25;;;;;;;12.85;8.80;;;5.60;96.70;;;;;;4869459;29;20068;-72
2021/12/08 00:31:53;;;;;;;13.98;8.68;;;5.70;96.70;;;;;;4867793;29;20069;-72
2021/12/08 00:34:22;;;;;;;14.07;9.25;;;5.60;96.70;;;;;;4867688;29;20131;-72
2021/12/08 00:36:55;;;;;;;14.35;9.20;;;5.50;96.70;;;;;;4836627;29;20108;-71
2021/12/08 00:39:23;;;;;;;14.95;9.35;;;5.40;96.70;;;;;;4868994;29;20415;-73
2021/12/08 00:41:53;;;;;;;16.75;9.73;;;5.50;96.70;;;;;;4870764;29;20184;-72
2021/12/08 00:44:21;;;;;;;13.70;9.20;;;5.40;96.70;;;;;;4871218;29;20561;-72
2021/12/08 00:46:50;;;;;;;15.05;9.60;;;5.50;96.70;;;;;;4869003;29;20037;-72
2021/12/08 00:49:18;;;;;;;14.70;9.45;;;5.60;96.70;;;;;;4854410;29;20061;-72
2021/12/08 00:51:46;;;;;;;18.88;10.57;;;5.70;96.70;;;;;;4852155;29;20098;-72
2021/12/08 00:54:14;;;;;;;16.13;9.55;;;5.70;96.70;;;;;;4869278;29;20133;-72
2021/12/08 00:56:43;;;;;;;14.40;9.48;;;5.60;96.70;;;;;;4855530;29;20485;-72
2021/12/08 00:59:12;;;;;;;16.20;8.77;;;5.60;96.70;;;;;;4853051;29;20104;-72
2021/12/08 01:01:41;;;;;;;15.63;9.25;;;5.60;96.70;;;;;;4852528;29;20040;-72
2021/12/08 01:04:09;;;;;;;18.42;9.30;;;5.50;96.70;;;;;;4870196;29;20104;-72
2021/12/08 01:06:38;;;;;;;13.48;9.13;;;5.50;96.70;;;;;;4867947;29;20470;-72
2021/12/08 01:09:06;;;;;;;17.65;9.68;;;5.40;96.70;;;;;;4865960;29;20108;-73
2021/12/08 01:11:36;;;;;;;14.40;9.27;;;5.40;96.70;;;;;;4854228;29;20246;-72
2021/12/08 01:14:05;;;;;;;15.73;9.40;;;5.40;96.70;;;;;;4871264;29;20423;-73
2021/12/08 01:16:34;;;;;;;16.98;9.55;;;5.50;96.70;;;;;;4853969;29;20471;-72
2021/12/08 01:19:03;;;;;;;15.40;8.55;;;5.50;96.70;;;;;;4873119;29;20051;-72
2021/12/08 01:21:31;;;;;;;14.32;7.90;;;5.50;96.70;;;;;;4853312;29;20045;-73
2021/12/08 01:23:59;;;;;;;14.35;8.13;;;5.60;96.70;;;;;;4851377;29;20530;-72
2021/12/08 01:26:28;;;;;;;15.68;8.68;;;5.50;96.70;;;;;;4853466;29;20638;-72
2021/12/08 01:28:57;;;;;;;13.25;8.35;;;5.50;96.70;;;;;;4856253;29;20056;-72
2021/12/08 01:31:25;;;;;;;13.80;8.57;;;5.50;96.70;;;;;;4850325;29;20124;-72
2021/12/08 01:33:55;;;;;;;14.15;8.20;;;5.50;96.70;;;;;;4851937;29;20045;-72
2021/12/08 01:36:23;;;;;;;14.70;9.00;;;5.50;96.70;;;;;;4867566;29;20052;-72
2021/12/08 01:38:51;;;;;;;13.05;8.27;;;5.60;96.70;;;;;;4869020;29;20116;-73
2021/12/08 01:41:22;;;;;;;12.02;7.43;;;5.60;96.70;;;;;;4867564;29;20128;-72
2021/12/08 01:46:37;;;;;;;;;;;5.30;96.70;;;;;;4871264;29;20036;-72
2021/12/08 01:49:07;;;;;;;16.05;8.30;;;5.30;96.70;;;;;;4869654;29;20367;-72
2021/12/08 01:51:36;;;;;;;12.63;7.63;;;5.30;96.70;;;;;;4869000;29;20124;-72
2021/12/08 01:54:06;;;;;;;10.98;7.15;;;5.30;96.70;;;;;;4868130;29;20520;-72
2021/12/08 01:56:36;;;;;;;11.05;7.15;;;5.30;96.70;;;;;;4870993;29;20105;-72
2021/12/08 01:59:06;;;;;;;12.18;7.60;;;5.20;96.70;;;;;;4867205;29;20103;-72
2021/12/08 02:01:37;;;;;;;13.55;7.97;;;5.20;96.70;;;;;;4868961;29;20049;-72
2021/12/08 02:04:07;;;;;;;10.98;7.03;;;5.20;96.70;;;;;;4855430;29;20093;-72
2021/12/08 02:06:37;;;;;;;10.10;6.55;;;5.20;96.70;;;;;;4868959;29;20239;-72
2021/12/08 02:09:12;;;;;;;10.35;6.72;;;5.20;96.70;;;;;;4868627;29;20136;-72
2021/12/08 02:11:44;;;;;;;9.50;6.70;;;5.30;96.70;;;;;;4868649;29;20048;-72
2021/12/08 02:14:13;;;;;;;9.88;6.40;;;5.40;96.70;;;;;;4851696;29;20052;-72
2021/12/08 02:16:46;;;;;;;8.73;5.97;;;5.40;96.70;;;;;;4867645;29;20073;-72
2021/12/08 02:19:16;;;;;;;9.00;5.93;;;5.40;96.70;;;;;;4868788;29;20330;-72
2021/12/08 02:21:52;;;;;;;8.60;5.70;;;5.40;96.70;;;;;;4868474;29;20049;-72
2021/12/08 02:24:21;;;;;;;8.87;5.90;;;5.40;96.70;;;;;;4866874;29;20045;-72
2021/12/08 02:26:51;;;;;;;10.13;6.00;;;5.40;96.70;;;;;;4864273;29;20051;-72
2021/12/08 02:29:28;;;;;;;9.07;5.65;;;5.40;96.70;;;;;;4866212;29;20331;-72
2021/12/08 02:32:07;;;;;;;7.00;5.30;;;5.40;96.70;;;;;;4874800;29;20176;-72
2021/12/08 02:48:42;;;;;;;9.18;6.13;;;5.50;96.70;;;;;;4870022;29;20045;-72
2021/12/08 02:51:10;;;;;;;9.00;5.82;;;5.40;96.70;;;;;;4856870;29;20087;-72
2021/12/08 02:53:40;;;;;;;11.60;6.47;;;5.50;96.70;;;;;;4874861;29;20058;-72
2021/12/08 02:56:08;;;;;;;10.05;6.30;;;5.50;96.70;;;;;;4869393;29;20041;-72
2021/12/08 02:58:37;;;;;;;9.48;6.43;;;5.40;96.70;;;;;;4866817;29;20059;-72
2021/12/08 03:01:07;;;;;;;9.55;6.05;;;5.40;96.70;;;;;;4870239;29;20073;-72
2021/12/08 03:03:36;;;;;;;8.75;6.18;;;5.40;96.70;;;;;;4867519;29;20458;-72
2021/12/08 03:06:06;;;;;;;8.18;5.90;;;5.40;96.70;;;;;;4866356;29;20453;-72
2021/12/08 03:08:34;;;;;;;8.32;5.97;;;5.40;96.70;;;;;;4867915;29;20453;-72
2021/12/08 03:11:04;;;;;;;13.35;6.75;;;5.40;96.70;;;;;;4867738;29;20049;-72
2021/12/08 03:13:37;;;;;;;10.23;6.18;;;5.40;96.70;;;;;;4858180;29;20362;-74
2021/12/08 03:16:08;;;;;;;9.48;5.82;;;5.40;96.70;;;;;;4851093;29;20548;-74
2021/12/08 03:18:38;;;;;;;8.23;5.78;;;5.50;96.70;;;;;;4868395;29;20468;-74
2021/12/08 03:21:08;;;;;;;9.55;5.47;;;5.50;96.70;;;;;;4867596;29;20087;-74
2021/12/08 03:24:25;;;;;;;7.32;5.80;;;5.60;96.70;;;;;;4865851;29;20041;-74
2021/12/08 03:26:32;;;;;;;8.10;5.57;;;5.60;96.70;;;;;;4854851;29;20500;-74
2021/12/08 03:29:07;;;;;;;8.40;6.38;;;5.70;96.70;;;;;;4853699;29;20097;-73
2021/12/08 03:31:42;;;;;;;8.57;6.07;;;5.70;96.70;;;;;;4871032;29;20132;-74
2021/12/08 03:34:11;;;;;;;9.15;5.75;;;5.70;96.70;;;;;;4873960;29;20043;-74
2021/12/08 03:36:39;;;;;;;8.15;5.65;;;5.70;96.70;;;;;;4866873;29;20069;-74
2021/12/08 03:39:07;;;;;;;9.45;5.82;;;5.70;96.70;;;;;;4855109;29;20263;-75
2021/12/08 03:41:37;;;;;;;10.07;6.30;;;5.70;96.70;;;;;;4853870;29;20567;-74
2021/12/08 03:44:06;;;;;;;8.88;5.30;;;5.70;96.70;;;;;;4871772;29;20626;-74
2021/12/08 03:46:40;;;;;;;8.57;5.72;;;5.70;96.70;;;;;;4854730;29;20045;-74
2021/12/08 03:49:11;;;;;;;9.55;6.18;;;5.70;96.70;;;;;;4855843;29;20534;-74
2021/12/08 03:51:40;;;;;;;8.85;5.65;;;5.80;96.70;;;;;;4868494;29;20117;-74
2021/12/08 03:54:10;;;;;;;8.23;6.00;;;5.80;96.70;;;;;;4852772;29;20166;-74
2021/12/08 03:56:40;;;;;;;9.93;6.55;;;5.70;96.70;;;;;;4869230;29;20073;-74
2021/12/08 03:59:08;;;;;;;10.52;6.47;;;5.70;96.70;;;;;;4856130;29;20048;-73
2021/12/08 04:01:36;;;;;;;10.35;7.07;;;5.70;96.70;;;;;;4854528;29;20551;-74
2021/12/08 04:04:07;;;;;;;7.85;5.65;;;5.80;96.70;;;;;;4869313;29;20056;-74
2021/12/08 04:06:44;;;;;;;7.78;6.00;;;5.80;96.70;;;;;;4853499;29;20131;-74
2021/12/08 04:09:18;;;;;;;10.90;6.22;;;5.80;96.70;;;;;;4853959;29;20053;-74
2021/12/08 04:11:49;;;;;;;9.52;5.82;;;5.80;96.70;;;;;;4872093;29;20135;-73
2021/12/08 04:14:19;;;;;;;8.10;5.60;;;5.70;96.70;;;;;;4854951;29;20052;-72
2021/12/08 04:16:51;;;;;;;8.07;5.50;;;5.80;96.70;;;;;;4869258;29;20044;-72
2021/12/08 04:19:21;;;;;;;8.73;6.07;;;5.80;96.70;;;;;;4868463;29;20049;-72
2021/12/08 04:21:51;;;;;;;9.32;5.47;;;5.90;96.70;;;;;;4874965;29;20051;-72
2021/12/08 04:24:25;;;;;;;8.32;5.40;;;5.80;96.70;;;;;;4867281;29;20089;-72
2021/12/08 04:26:58;;;;;;;11.05;5.95;;;5.80;96.70;;;;;;4853264;29;20416;-72
2021/12/08 04:29:30;;;;;;;9.75;6.38;;;5.90;96.70;;;;;;4851275;29;20217;-72
2021/12/08 04:31:59;;;;;;;9.52;5.90;;;5.80;96.70;;;;;;4853220;29;20060;-72
2021/12/08 04:34:30;;;;;;;10.93;7.38;;;5.90;96.70;;;;;;4852746;29;20136;-72
2021/12/08 04:37:03;;;;;;;10.80;6.82;;;5.90;96.70;;;;;;4869222;29;20168;-72
2021/12/08 04:39:45;;;;;;;12.98;7.65;;;6.00;96.70;;;;;;4853689;29;20483;-72
2021/12/08 04:42:19;;;;;;;11.35;7.35;;;6.00;96.70;;;;;;4852442;29;22179;-72
2021/12/08 04:44:55;;;;;;;10.93;7.35;;;6.00;96.70;;;;;;4869976;29;20096;-72
2021/12/08 04:47:34;;;;;;;13.70;7.18;;;5.90;96.70;;;;;;4854769;29;20041;-72
2021/12/08 05:04:38;;;;;;;9.98;6.90;;;5.90;96.70;;;;;;4802269;29;20223;-72
2021/12/08 05:07:33;;;;;;;11.77;7.43;;;5.90;96.70;;;;;;4867570;29;20639;-72
2021/12/08 05:09:49;;;;;;;10.70;7.13;;;5.80;96.70;;;;;;4868398;29;20274;-72
2021/12/08 05:12:19;;;;;;;11.50;7.68;;;5.80;96.70;;;;;;4867130;29;20448;-72
2021/12/08 05:14:53;;;;;;;10.07;7.00;;;5.80;96.70;;;;;;4868662;29;20041;-72
2021/12/08 05:17:25;;;;;;;9.75;6.60;;;5.80;96.70;;;;;;4871509;29;20104;-72
2021/12/08 05:19:55;;;;;;;7.85;6.13;;;5.90;96.70;;;;;;4872544;29;20076;-72
2021/12/08 05:22:28;;;;;;;8.00;6.00;;;5.90;96.70;;;;;;4869356;29;20044;-72
2021/12/08 05:24:57;;;;;;;8.75;5.85;;;5.90;96.70;;;;;;4868550;29;20456;-72
2021/12/08 05:27:33;;;;;;;7.78;5.60;;;5.90;96.70;;;;;;4867384;29;20041;-72
2021/12/08 05:30:08;;;;;;;7.75;4.88;;;5.90;96.70;;;;;;4853118;29;20037;-72
2021/12/08 05:32:36;;;;;;;8.75;5.10;;;5.90;96.70;;;;;;4869207;29;20049;-72
2021/12/08 05:35:07;;;;;;;7.28;5.00;;;5.90;96.70;;;;;;4867455;29;20049;-73
2021/12/08 05:37:36;;;;;;;9.40;6.00;;;5.90;96.70;;;;;;4868625;29;20068;-72
2021/12/08 05:40:08;;;;;;;6.68;4.32;;;5.90;96.70;;;;;;4866610;29;20060;-72
2021/12/08 05:42:37;;;;;;;7.05;4.80;;;6.00;96.70;;;;;;4855689;29;20792;-72
2021/12/08 05:45:09;;;;;;;5.10;3.67;;;6.00;96.70;;;;;;4855550;29;20305;-72
2021/12/08 05:47:38;;;;;;;6.78;4.53;;;6.00;96.70;;;;;;4868732;29;20515;-72
2021/12/08 05:50:11;;;;;;;5.85;4.57;;;6.00;96.70;;;;;;4854169;29;20475;-72
2021/12/08 05:52:39;;;;;;;7.93;4.85;;;6.00;96.70;;;;;;4869136;29;20040;-72
2021/12/08 05:55:08;;;;;;;6.53;4.53;;;6.00;96.70;;;;;;4869637;29;20365;-72
2021/12/08 05:57:40;;;;;;;5.60;4.40;;;6.00;96.70;;;;;;4867930;29;20037;-73
2021/12/08 06:00:13;;;;;;;5.82;4.50;;;6.00;96.70;;;;;;4867443;29;20056;-72
2021/12/08 06:02:42;;;;;;;8.43;4.75;;;6.00;96.70;;;;;;4870000;29;20052;-73
2021/12/08 06:05:13;;;;;;;7.15;4.68;;;6.00;96.70;;;;;;4868926;29;20057;-72
2021/12/08 06:07:43;;;;;;;6.00;4.30;;;6.00;96.70;;;;;;4840987;29;20118;-72
2021/12/08 06:10:13;;;;;;;7.95;5.07;;;6.00;96.70;;;;;;4854749;29;20053;-72
2021/12/08 06:12:43;;;;;;;7.18;4.85;;;6.10;96.70;;;;;;4851662;29;20125;-73
2021/12/08 06:15:13;;;;;;;7.75;4.55;;;6.10;96.70;;;;;;4849796;29;20408;-72
2021/12/08 06:17:41;;;;;;;7.53;5.47;;;6.00;96.70;;;;;;4854698;29;20139;-72
2021/12/08 06:20:12;;;;;;;8.45;5.72;;;6.00;96.70;;;;;;4849872;29;20449;-72
2021/12/08 06:22:41;;;;;;;8.95;5.93;;;6.10;96.70;;;;;;4847622;29;20057;-73
2021/12/08 06:25:10;;;;;;;7.88;5.38;;;6.00;96.70;;;;;;4847279;29;20044;-72
2021/12/08 06:27:40;;;;;;;6.93;5.05;;;6.00;96.70;;;;;;4850059;29;20092;-72
2021/12/08 06:30:12;;;;;;;8.18;5.45;;;6.00;96.70;;;;;;4852667;29;20110;-72
2021/12/08 06:32:42;;;;;;;9.00;5.63;;;6.00;96.70;;;;;;4847938;29;20948;-72
2021/12/08 06:35:13;;;;;;;9.27;6.38;;;6.00;96.70;;;;;;4847969;29;20445;-72
2021/12/08 06:37:43;;;;;;;7.78;5.45;;;6.10;96.70;;;;;;4849125;29;20083;-72
2021/12/08 06:40:17;;;;;;;7.55;5.75;;;6.10;96.70;;;;;;4849301;29;20045;-72
2021/12/08 06:42:48;;;;;;;9.15;5.88;;;6.10;96.70;;;;;;4847508;29;20419;-72
2021/12/08 06:45:23;;;;;;;9.05;6.28;;;6.10;96.70;;;;;;4849692;29;20441;-72
2021/12/08 06:47:54;;;;;;;7.28;5.28;;;6.10;96.70;;;;;;4835454;29;20522;-72
2021/12/08 06:50:25;;;;;;;8.60;6.18;;;6.10;96.70;;;;;;4852141;29;20060;-72
2021/12/08 06:52:55;;;;;;;9.15;5.15;;;6.20;96.70;;;;;;4834542;29;20121;-72
2021/12/08 06:55:26;;;;;;;8.20;5.90;;;6.20;96.70;;;;;;4850556;29;20407;-72
2021/12/08 06:57:57;;;;;;;7.60;5.82;;;6.20;96.70;;;;;;4845837;29;20065;-72
2021/12/08 07:00:48;;;;;;;8.63;5.88;;;6.30;96.70;;;;;;4835466;29;20488;-72
2021/12/08 07:03:35;;;;;;;8.43;5.95;;;6.30;96.70;;;;;;4855126;29;20049;-72
2021/12/08 07:06:18;;;;;;;9.05;6.65;;;6.30;96.70;;;;;;4857521;29;20059;-72
2021/12/08 07:08:50;;;;;;;8.85;6.32;;;6.20;96.70;;;;;;4869641;29;20048;-73
2021/12/08 07:11:21;;;;;;;10.02;7.05;;;6.20;96.70;;;;;;4854854;29;20049;-72
2021/12/08 07:13:54;;;;;;;10.55;6.57;;;6.20;96.70;;;;;;4854917;29;20072;-72
2021/12/08 07:16:31;;;;;;;9.05;6.13;;;6.20;96.70;;;;;;4868518;29;20048;-72
2021/12/08 07:19:09;;;;;;;8.38;5.20;;;6.30;96.70;;;;;;4860345;29;20096;-72
2021/12/08 07:21:40;;;;;;;7.72;5.32;;;6.30;96.70;;;;;;4854703;29;20120;-72
2021/12/08 07:24:12;;;;;;;6.65;4.80;;;6.30;96.70;;;;;;4855948;29;20057;-72
2021/12/08 07:26:42;;;;;;;7.68;4.85;;;6.30;96.70;;;;;;4872202;29;20049;-72
2021/12/08 07:29:13;;;;;;;7.18;4.43;;;6.30;96.70;;;;;;4879805;29;20131;-71
2021/12/08 07:31:46;;;;;;;6.88;4.47;;;6.30;96.70;;;;;;4853380;29;20053;-72
2021/12/08 07:34:19;;;;;;;;;;;6.30;96.70;;;;;;4852787;29;20079;-73
2021/12/08 07:36:53;;;;;;;4.95;3.67;;;6.40;96.70;;;;;;4867111;29;19974;-72
2021/12/08 07:39:27;;;;;;;6.15;3.70;;;6.40;96.70;;;;;;4853609;29;20093;-72
2021/12/08 07:42:04;;;;;;;5.70;3.70;;;6.40;96.70;;;;;;4871619;29;20071;-72
2021/12/08 07:44:32;;;;;;;6.13;3.78;;;6.50;96.70;;;;;;4857970;29;20108;-72
2021/12/08 07:47:05;;;;;;;5.35;3.53;;;6.50;96.70;;;;;;4854453;29;20071;-72
2021/12/08 07:49:38;;;;;;;6.55;4.07;;;6.50;96.70;;;;;;4855984;29;20048;-72
2021/12/08 07:52:10;;;;;;;8.02;4.75;;;6.50;96.70;;;;;;4873421;29;20051;-72
2021/12/08 07:54:47;;;;;;;8.02;4.85;;;6.50;96.70;;;;;;4871941;29;20041;-73
2021/12/08 07:57:19;;;;;;;6.80;4.60;;;6.50;96.70;;;;;;4873208;29;20045;-73
2021/12/08 07:59:51;;;;;;;5.82;4.40;;;6.60;96.70;;;;;;4871379;29;20047;-72
2021/12/08 08:02:25;;;;;;;5.90;3.70;;;6.50;96.70;;;;;;4870651;29;20079;-72
2021/12/08 08:04:58;;;;;;;4.63;3.50;;;6.50;96.70;;;;;;4855711;29;20067;-72
2021/12/08 08:07:27;;;;;;;6.07;3.45;;;6.50;96.70;;;;;;4870923;29;20481;-73
2021/12/08 08:10:01;;;;;;;4.47;3.38;;;6.50;96.70;;;;;;4873281;29;20045;-73
2021/12/08 08:12:32;;;;;;;6.35;4.28;;;6.40;96.70;;;;;;4852789;29;20061;-73
2021/12/08 08:15:04;;;;;;;6.60;4.32;;;6.40;96.70;;;;;;4850806;29;20057;-72
2021/12/08 08:17:39;;;;;;;6.80;4.40;;;6.40;96.70;;;;;;4873748;29;20051;-73
2021/12/08 08:20:14;;;;;;;6.90;4.68;;;6.40;96.70;;;;;;4869199;29;20052;-73
2021/12/08 08:22:42;;;;;;;6.90;4.38;;;6.40;96.70;;;;;;4869547;29;20056;-73
2021/12/08 08:25:15;;;;;;;6.30;4.45;;;6.40;96.70;;;;;;4853272;29;20105;-73
2021/12/08 08:27:43;;;;;;;6.93;4.78;;;6.40;96.70;;;;;;4856617;29;20440;-72
2021/12/08 08:30:17;;;;;;;6.45;5.10;;;6.40;96.70;;;;;;4872953;29;20052;-73
2021/12/08 08:32:48;;;;;;;9.32;6.47;;;6.50;96.70;;;;;;4872418;29;20469;-72
2021/12/08 08:35:22;;;;;;;8.98;5.47;;;6.50;96.70;;;;;;4870073;29;20049;-72
2021/12/08 08:37:51;;;;;;;9.77;6.25;;;6.50;96.70;;;;;;4870930;29;20049;-72
2021/12/08 08:40:23;;;;;;;10.43;6.47;;;6.50;96.70;;;;;;4869012;29;20045;-73
2021/12/08 08:42:53;;;;;;;10.35;6.82;;;6.50;96.70;;;;;;4868235;29;20105;-73
2021/12/08 08:45:25;;;;;;;8.55;6.10;;;6.50;96.70;;;;;;4868774;29;20065;-73
2021/12/08 08:47:58;;;;;;;9.10;6.80;;;6.50;96.70;;;;;;4869482;29;20045;-72
2021/12/08 08:50:36;;;;;;;12.35;7.45;;;6.50;96.70;;;;;;4871273;29;20487;-73
2021/12/08 08:53:05;;;;;;;12.80;9.27;;;6.50;96.70;;;;;;4852117;29;20523;-74
2021/12/08 08:55:43;;;;;;;;;;;6.50;96.70;;;;;;4868313;29;20385;-73
2021/12/08 08:58:11;;;;;;;10.38;8.10;;;6.50;96.70;;;;;;4871808;29;20403;-73
2021/12/08 09:00:43;;;;;;;8.98;6.25;;;6.50;96.70;;;;;;4874499;29;20060;-73
2021/12/08 09:03:16;;;;;;;9.32;7.47;;;6.60;96.70;;;;;;4870183;29;20067;-73
2021/12/08 09:05:51;;;;;;;9.55;6.13;;;6.60;96.70;;;;;;4855354;29;20131;-73
2021/12/08 09:08:22;;;;;;;5.55;4.85;;;6.50;96.70;;;;;;4866777;29;20068;-73
2021/12/08 09:10:54;;;;;;;7.13;6.43;;;6.50;96.70;;;;;;4850321;29;20049;-72
2021/12/08 09:13:28;;;;;;;7.80;5.30;;;6.50;96.70;;;;;;4851753;29;20526;-72
2021/12/08 09:15:59;;;;;;;9.73;7.80;;;6.60;96.70;;;;;;4867370;29;20045;-73
2021/12/08 09:18:35;;;;;;;9.65;6.65;;;6.60;96.70;;;;;;4867745;29;20503;-73
2021/12/08 09:21:15;;;;;;;8.35;5.88;;;6.60;96.70;;;;;;4867325;29;20055;-72
2021/12/08 09:23:47;;;;;;;8.15;5.18;;;6.50;96.70;;;;;;4849377;29;20430;-73
2021/12/08 09:26:19;;;;;;;6.22;4.80;;;6.50;96.70;;;;;;4872495;29;20356;-72
2021/12/08 09:28:50;;;;;;;6.95;5.13;;;6.50;96.70;;;;;;4874028;29;20491;-73
2021/12/08 09:31:23;;;;;;;6.63;5.07;;;6.50;96.70;;;;;;4870759;29;20056;-73
2021/12/08 09:33:56;;;;;;;6.85;4.32;;;6.50;96.70;;;;;;4861038;29;20049;-73
2021/12/08 09:36:30;;;;;;;8.93;7.00;;;6.50;96.70;;;;;;4871016;29;20045;-73
2021/12/08 09:39:03;;;;;;;9.20;7.25;;;6.50;96.70;;;;;;4870577;29;20478;-73
2021/12/08 09:41:37;;;;;;;8.60;5.95;;;6.60;96.70;;;;;;4850452;29;20143;-73
2021/12/08 09:44:10;;;;;;;8.00;6.25;;;6.60;96.70;;;;;;4855854;29;20056;-73
2021/12/08 09:46:41;;;;;;;8.95;5.93;;;6.60;96.70;;;;;;4870665;29;20131;-73
2021/12/08 09:49:11;;;;;;;8.65;5.22;;;6.60;96.70;;;;;;4872053;29;20041;-73
2021/12/08 09:51:42;;;;;;;7.72;5.38;;;6.60;96.70;;;;;;4872746;29;20498;-73
2021/12/08 09:54:10;;;;;;;8.02;5.60;;;6.60;96.70;;;;;;4865684;29;20037;-73
2021/12/08 09:56:40;;;;;;;6.68;5.15;;;6.60;96.70;;;;;;4867671;29;20037;-73
2021/12/08 09:59:11;;;;;;;8.20;5.20;;;6.60;96.70;;;;;;4854818;29;20056;-73
2021/12/08 10:01:41;;;;;;;9.00;4.88;;;6.60;96.70;;;;;;4871115;29;20053;-73
2021/12/08 10:04:13;;;;;;;6.57;4.93;;;6.60;96.70;;;;;;4854556;29;20053;-73
2021/12/08 10:06:49;;;;;;;7.78;4.68;;;6.60;96.70;;;;;;4870434;29;20057;-73
2021/12/08 10:09:18;;;;;;;7.97;5.03;;;6.60;96.70;;;;;;4864550;29;20072;-73
2021/12/08 10:11:47;;;;;;;9.90;6.60;;;6.60;96.70;;;;;;4867080;29;20571;-74
2021/12/08 10:14:16;;;;;;;9.82;7.15;;;6.60;96.70;;;;;;4871039;29;20051;-73
2021/12/08 10:16:44;;;;;;;10.95;8.00;;;6.70;96.70;;;;;;4867545;29;20041;-73
2021/12/08 10:19:15;;;;;;;9.00;6.03;;;6.70;96.70;;;;;;4866307;29;20550;-73
2021/12/08 10:21:46;;;;;;;10.77;8.27;;;6.80;96.70;;;;;;4849921;29;20515;-74
2021/12/08 10:24:17;;;;;;;10.68;6.97;;;6.80;96.70;;;;;;4853364;29;20060;-73
2021/12/08 10:26:46;;;;;;;6.60;5.90;;;6.80;96.70;;;;;;4874043;29;20503;-73
2021/12/08 10:29:15;;;;;;;7.70;6.05;;;6.80;96.70;;;;;;4855179;29;20052;-73
2021/12/08 10:31:47;;;;;;;7.75;6.18;;;6.80;96.70;;;;;;4853558;29;20049;-72
2021/12/08 10:36:49;;;;;;;9.40;5.32;;;6.80;96.70;;;;;;4867823;29;20267;-72
2021/12/08 10:39:21;;;;;;;8.95;5.50;;;6.80;96.70;;;;;;4872765;29;20083;-71
2021/12/08 10:41:56;;;;;;;5.95;5.00;;;6.80;96.70;;;;;;4872180;29;20045;-71
2021/12/08 10:47:18;;;;;;;7.20;4.43;;;6.90;96.70;;;;;;4870731;29;20599;-71
2021/12/08 10:55:11;;;;;;;8.57;4.88;;;7.00;96.70;;;;;;4868707;29;20132;-72
2021/12/08 10:57:39;;;;;;;8.70;4.70;;;7.00;96.70;;;;;;4856027;29;20128;-72
2021/12/08 11:00:10;;;;;;;7.55;4.90;;;7.10;96.70;;;;;;4870969;29;20037;-72
2021/12/08 11:02:50;;;;;;;7.10;4.53;;;7.10;96.70;;;;;;4872524;29;20048;-72
2021/12/08 11:05:37;;;;;;;7.63;5.45;;;7.10;96.70;;;;;;4853002;29;20045;-72
2021/12/08 11:08:08;;;;;;;;;;;7.10;96.70;;;;;;4868609;29;20057;-72
2021/12/08 11:10:39;;;;;;;6.15;3.95;;;7.10;96.70;;;;;;4870586;29;19988;-71
2021/12/08 11:13:08;;;;;;;9.18;5.10;;;7.20;96.70;;;;;;4867640;29;20052;-77
2021/12/08 11:15:39;;;;;;;8.30;5.18;;;7.20;96.70;;;;;;4871320;29;20072;-72
2021/12/08 11:18:13;;;;;;;8.15;5.63;;;7.20;96.70;;;;;;4871215;29;20049;-72
2021/12/08 11:20:48;;;;;;;8.98;5.07;;;7.30;96.70;;;;;;4852941;29;20069;-70
2021/12/08 11:23:38;;;;;;;9.27;5.60;;;7.20;96.70;;;;;;4869662;29;20404;-72
2021/12/08 11:26:22;;;;;;;8.65;5.88;;;7.30;96.70;;;;;;4852170;29;20049;-72
2021/12/08 11:29:00;;;;;;;11.82;6.43;;;7.30;96.70;;;;;;4869111;29;20045;-73
2021/12/08 11:31:31;;;;;;;10.18;5.32;;;7.30;96.70;;;;;;4871912;29;20045;-72
2021/12/08 11:34:02;;;;;;;9.07;5.00;;;7.30;96.70;;;;;;4868896;29;20064;-72
2021/12/08 11:36:31;;;;;;;7.60;4.68;;;7.30;96.70;;;;;;4870361;29;20279;-72
2021/12/08 11:39:08;;;;;;;6.38;4.05;;;7.30;96.70;;;;;;4869438;29;20051;-72
2021/12/08 11:41:38;;;;;;;9.95;5.13;;;7.30;96.70;;;;;;4867196;29;20048;-73
2021/12/08 11:44:10;;;;;;;6.82;5.10;;;7.40;96.70;;;;;;4869188;29;20582;-72
2021/12/08 11:46:59;;;;;;;6.72;4.30;;;7.40;96.70;;;;;;4870131;29;20037;-73
2021/12/08 11:49:27;;;;;;;8.77;5.85;;;7.40;96.70;;;;;;4872336;29;20048;-73
2021/12/08 11:51:59;;;;;;;11.60;6.97;;;7.40;96.70;;;;;;4850948;29;20055;-73
2021/12/08 11:54:37;;;;;;;8.70;5.78;;;7.40;96.70;;;;;;4872199;29;20048;-73
2021/12/08 11:57:18;;;;;;;7.25;4.78;;;7.40;96.70;;;;;;4872516;29;20051;-73
2021/12/08 11:59:58;;;;;;;5.95;4.57;;;7.40;96.70;;;;;;4872213;29;20149;-73
2021/12/08 12:02:29;;;;;;;10.35;5.68;;;7.50;96.70;;;;;;4868550;29;20514;-73
2021/12/08 12:04:58;;;;;;;8.77;5.07;;;7.50;96.70;;;;;;4868631;29;20072;-73
2021/12/08 12:07:26;;;;;;;9.50;5.78;;;7.50;96.70;;;;;;4871895;29;20060;-74
2021/12/08 12:09:57;;;;;;;10.32;7.10;;;7.60;96.70;;;;;;4868307;29;20555;-72
2021/12/08 12:12:26;;;;;;;11.15;6.13;;;7.60;96.70;;;;;;4869269;29;20059;-73
2021/12/08 12:14:54;;;;;;;7.65;5.10;;;7.70;96.70;;;;;;4868621;29;20504;-73
2021/12/08 12:17:22;;;;;;;8.18;5.20;;;7.70;96.70;;;;;;4870719;29;20041;-73
2021/12/08 12:20:01;;;;;;;9.02;5.85;;;7.70;96.70;;;;;;4868519;29;20441;-73
2021/12/08 12:23:04;;;;;;;6.63;4.82;;;7.70;96.70;;;;;;4870288;29;20045;-73
2021/12/08 12:25:51;;;;;;;18.70;11.75;;;7.70;96.70;;;;;;4841935;29;20080;-73
2021/12/08 12:28:49;;;;;;;32.58;24.63;;;7.80;96.70;;;;;;4852940;29;20113;-73
2021/12/08 12:31:22;;;;;;;25.55;16.10;;;7.80;96.70;;;;;;4867699;29;20564;-73
2021/12/08 12:33:52;;;;;;;19.88;17.67;;;7.80;96.70;;;;;;4868782;29;20132;-73
2021/12/08 12:36:25;;;;;;;16.77;13.60;;;7.80;96.70;;;;;;4865981;29;20141;-73
2021/12/08 12:39:10;;;;;;;10.50;6.78;;;7.70;96.70;;;;;;4867398;29;20081;-74
2021/12/08 12:41:56;;;;;;;36.70;28.45;;;7.70;96.70;;;;;;4869408;29;20938;-72
2021/12/08 12:44:26;;;;;;;57.47;38.40;;;7.60;96.70;;;;;;4852419;29;20064;-72
2021/12/08 12:47:23;;;;;;;9.23;7.15;;;7.60;96.70;;;;;;4868525;29;20053;-72
2021/12/08 12:50:20;;;;;;;8.27;5.63;;;7.60;96.70;;;;;;4869278;29;20045;-72
2021/12/08 12:52:56;;;;;;;7.20;5.20;;;7.60;96.70;;;;;;4866808;29;20083;-72
2021/12/08 12:55:26;;;;;;;9.55;4.90;;;7.60;96.70;;;;;;4872823;29;20489;-73
2021/12/08 12:58:17;;;;;;;6.32;4.72;;;7.70;96.70;;;;;;4867207;29;20045;-72
2021/12/08 13:00:49;;;;;;;9.15;6.85;;;7.70;96.70;;;;;;4866815;29;20056;-72
2021/12/08 13:03:45;;;;;;;17.27;14.13;;;7.70;96.70;;;;;;4865565;29;20501;-72
2021/12/08 13:06:15;;;;;;;9.52;7.13;;;7.80;96.70;;;;;;4869928;29;20048;-73
2021/12/08 13:08:46;;;;;;;10.77;7.20;;;7.80;96.70;;;;;;4852372;29;20292;-72
2021/12/08 13:11:45;;;;;;;10.35;7.55;;;7.80;96.70;;;;;;4851508;29;20468;-72
2021/12/08 13:14:24;;;;;;;10.80;7.30;;;7.90;96.70;;;;;;4863477;29;20152;-73
2021/12/08 13:17:14;;;;;;;8.38;6.22;;;7.90;96.70;;;;;;4867884;29;20052;-72
2021/12/08 13:19:45;;;;;;;9.35;5.28;;;7.90;96.70;;;;;;4849066;29;20056;-72
2021/12/08 13:22:45;;;;;;;6.28;3.35;;;7.90;96.70;;;;;;4853194;29;20057;-72
2021/12/08 13:26:09;;;;;;;4.82;2.90;;;7.80;96.70;;;;;;4837495;29;20081;-72
2021/12/08 13:31:37;;;;;;;10.05;5.45;;;7.80;96.70;;;;;;4868757;29;20156;-72
2021/12/08 13:34:08;;;;;;;24.23;10.05;;;7.80;96.70;;;;;;4868511;29;20259;-72
2021/12/08 13:36:40;;;;;;;31.77;11.90;;;7.90;96.70;;;;;;4866148;29;20052;-71
2021/12/08 13:39:19;;;;;;;10.55;5.32;;;7.90;96.70;;;;;;4851630;29;20579;-71
2021/12/08 13:42:04;;;;;;;7.68;4.80;;;8.00;96.70;;;;;;4867273;29;20051;-71
2021/12/08 13:44:36;;;;;;;9.82;7.32;;;8.00;96.70;;;;;;4869993;29;20045;-71
2021/12/08 13:47:09;;;;;;;10.77;7.30;;;8.00;96.70;;;;;;4866545;29;20080;-71
2021/12/08 13:49:49;;;;;;;11.00;7.72;;;8.10;96.70;;;;;;4868292;29;20418;-71
2021/12/08 13:52:22;;;;;;;10.07;7.75;;;8.10;96.70;;;;;;4868451;29;20047;-71
2021/12/08 13:54:52;;;;;;;10.63;7.03;;;8.10;96.70;;;;;;4866510;29;20079;-71
2021/12/08 13:57:42;;;;;;;9.98;6.25;;;8.20;96.70;;;;;;4870798;29;20097;-71
2021/12/08 14:00:42;;;;;;;10.20;6.43;;;8.20;96.70;;;;;;4869080;29;20055;-71
2021/12/08 14:03:18;;;;;;;11.40;8.40;;;8.20;96.70;;;;;;4810240;29;20448;-72
2021/12/08 14:05:49;;;;;;;12.18;7.55;;;8.30;96.70;;;;;;4796640;29;20062;-71
2021/12/08 14:08:22;;;;;;;11.05;7.68;;;8.20;96.70;;;;;;4794099;29;20086;-71
2021/12/08 14:10:52;;;;;;;14.48;9.32;;;8.20;96.70;;;;;;4807457;29;20133;-72